sensor_id;sensor_type;location;lat;lon;timestamp;P1;durP1;ratioP1;P2;durP2;ratioP2
61477;SDS011;47345;52.334;10.392;2023-11-21T00:01:24;15.90;;;7.70;;
61477;SDS011;47345;52.334;10.392;2023-11-21T00:04:05;14.90;;;7.50;;
61477;SDS011;47345;52.334;10.392;2023-11-21T00:06:43;18.50;;;7.50;;
61477;SDS011;47345;52.334;10.392;2023-11-21T00:09:25;13.80;;;7.60;;
61477;SDS011;47345;52.334;10.392;2023-11-21T00:12:04;12.90;;;6.90;;
61477;SDS011;47345;52.334;10.392;2023-11-21T00:14:48;13.00;;;7.20;;
61477;SDS011;47345;52.334;10.392;2023-11-21T00:17:25;15.80;;;7.80;;
61477;SDS011;47345;52.334;10.392;2023-11-21T00:20:10;19.80;;;8.40;;
61477;SDS011;47345;52.334;10.392;2023-11-21T00:22:53;13.10;;;7.30;;
61477;SDS011;47345;52.334;10.392;2023-11-21T00:25:26;19.60;;;7.90;;
61477;SDS011;47345;52.334;10.392;2023-11-21T00:28:04;14.80;;;7.90;;
61477;SDS011;47345;52.334;10.392;2023-11-21T00:30:48;10.80;;;6.80;;
61477;SDS011;47345;52.334;10.392;2023-11-21T00:33:24;13.40;;;7.80;;
61477;SDS011;47345;52.334;10.392;2023-11-21T00:36:08;15.20;;;7.60;;
61477;SDS011;47345;52.334;10.392;2023-11-21T00:39:00;16.70;;;7.60;;
61477;SDS011;47345;52.334;10.392;2023-11-21T00:41:40;12.20;;;7.30;;
61477;SDS011;47345;52.334;10.392;2023-11-21T00:44:18;13.30;;;7.60;;
61477;SDS011;47345;52.334;10.392;2023-11-21T00:47:03;14.90;;;7.50;;
61477;SDS011;47345;52.334;10.392;2023-11-21T00:49:43;16.70;;;7.50;;
61477;SDS011;47345;52.334;10.392;2023-11-21T00:52:23;16.00;;;8.50;;
61477;SDS011;47345;52.334;10.392;2023-11-21T00:55:01;17.50;;;8.30;;
61477;SDS011;47345;52.334;10.392;2023-11-21T00:57:47;14.80;;;8.10;;
61477;SDS011;47345;52.334;10.392;2023-11-21T01:00:32;20.10;;;8.20;;
61477;SDS011;47345;52.334;10.392;2023-11-21T01:03:20;22.90;;;8.50;;
61477;SDS011;47345;52.334;10.392;2023-11-21T01:05:54;14.60;;;8.10;;
61477;SDS011;47345;52.334;10.392;2023-11-21T01:08:47;15.80;;;8.60;;
61477;SDS011;47345;52.334;10.392;2023-11-21T01:11:25;22.30;;;9.50;;
61477;SDS011;47345;52.334;10.392;2023-11-21T01:14:10;19.00;;;9.00;;
61477;SDS011;47345;52.334;10.392;2023-11-21T01:16:50;21.20;;;8.70;;
61477;SDS011;47345;52.334;10.392;2023-11-21T01:19:30;19.80;;;9.00;;
61477;SDS011;47345;52.334;10.392;2023-11-21T01:22:15;18.60;;;8.70;;
61477;SDS011;47345;52.334;10.392;2023-11-21T01:24:57;18.00;;;9.10;;
61477;SDS011;47345;52.334;10.392;2023-11-21T01:27:36;18.00;;;9.40;;
61477;SDS011;47345;52.334;10.392;2023-11-21T01:30:25;17.60;;;9.70;;
61477;SDS011;47345;52.334;10.392;2023-11-21T01:33:09;21.70;;;9.70;;
61477;SDS011;47345;52.334;10.392;2023-11-21T01:35:49;18.50;;;9.50;;
61477;SDS011;47345;52.334;10.392;2023-11-21T01:38:26;13.90;;;9.10;;
61477;SDS011;47345;52.334;10.392;2023-11-21T01:41:10;16.00;;;9.10;;
61477;SDS011;47345;52.334;10.392;2023-11-21T01:43:57;18.80;;;9.20;;
61477;SDS011;47345;52.334;10.392;2023-11-21T01:46:41;19.10;;;9.40;;
61477;SDS011;47345;52.334;10.392;2023-11-21T01:49:23;18.10;;;10.00;;
61477;SDS011;47345;52.334;10.392;2023-11-21T01:52:00;17.50;;;9.10;;
61477;SDS011;47345;52.334;10.392;2023-11-21T01:54:48;23.10;;;9.40;;
61477;SDS011;47345;52.334;10.392;2023-11-21T01:57:33;17.70;;;9.90;;
61477;SDS011;47345;52.334;10.392;2023-11-21T02:00:20;22.60;;;9.50;;
61477;SDS011;47345;52.334;10.392;2023-11-21T02:03:16;22.60;;;9.40;;
61477;SDS011;47345;52.334;10.392;2023-11-21T02:06:01;16.40;;;9.00;;
61477;SDS011;47345;52.334;10.392;2023-11-21T02:08:44;17.40;;;9.60;;
61477;SDS011;47345;52.334;10.392;2023-11-21T02:11:23;19.90;;;9.90;;
61477;SDS011;47345;52.334;10.392;2023-11-21T02:14:03;26.80;;;10.00;;
61477;SDS011;47345;52.334;10.392;2023-11-21T02:16:46;20.10;;;10.00;;
61477;SDS011;47345;52.334;10.392;2023-11-21T02:19:22;15.50;;;8.20;;
61477;SDS011;47345;52.334;10.392;2023-11-21T02:22:05;22.20;;;9.40;;
61477;SDS011;47345;52.334;10.392;2023-11-21T02:24:54;19.90;;;9.50;;
61477;SDS011;47345;52.334;10.392;2023-11-21T02:27:58;18.00;;;9.50;;
61477;SDS011;47345;52.334;10.392;2023-11-21T02:34:23;21.80;;;9.50;;
61477;SDS011;47345;52.334;10.392;2023-11-21T02:37:10;20.30;;;9.40;;
61477;SDS011;47345;52.334;10.392;2023-11-21T02:39:50;22.20;;;10.90;;
61477;SDS011;47345;52.334;10.392;2023-11-21T02:42:47;18.40;;;9.60;;
61477;SDS011;47345;52.334;10.392;2023-11-21T02:45:41;19.90;;;9.10;;
61477;SDS011;47345;52.334;10.392;2023-11-21T02:48:39;17.00;;;10.00;;
61477;SDS011;47345;52.334;10.392;2023-11-21T02:51:33;17.70;;;9.00;;
61477;SDS011;47345;52.334;10.392;2023-11-21T02:54:19;19.70;;;9.50;;
61477;SDS011;47345;52.334;10.392;2023-11-21T02:57:05;20.80;;;10.30;;
61477;SDS011;47345;52.334;10.392;2023-11-21T03:03:22;16.30;;;9.90;;
61477;SDS011;47345;52.334;10.392;2023-11-21T03:06:16;22.20;;;9.80;;
61477;SDS011;47345;52.334;10.392;2023-11-21T03:09:05;20.00;;;9.20;;
61477;SDS011;47345;52.334;10.392;2023-11-21T03:11:59;16.50;;;9.40;;
61477;SDS011;47345;52.334;10.392;2023-11-21T03:14:40;20.30;;;10.10;;
61477;SDS011;47345;52.334;10.392;2023-11-21T03:17:23;17.60;;;9.20;;
61477;SDS011;47345;52.334;10.392;2023-11-21T03:20:08;18.90;;;9.60;;
61477;SDS011;47345;52.334;10.392;2023-11-21T03:25:46;21.70;;;10.10;;
61477;SDS011;47345;52.334;10.392;2023-11-21T03:28:25;18.30;;;9.10;;
61477;SDS011;47345;52.334;10.392;2023-11-21T03:31:09;18.70;;;9.30;;
61477;SDS011;47345;52.334;10.392;2023-11-21T03:33:59;16.80;;;9.70;;
61477;SDS011;47345;52.334;10.392;2023-11-21T03:36:52;21.80;;;9.20;;
61477;SDS011;47345;52.334;10.392;2023-11-21T03:39:34;18.50;;;9.30;;
61477;SDS011;47345;52.334;10.392;2023-11-21T03:42:10;19.00;;;10.20;;
61477;SDS011;47345;52.334;10.392;2023-11-21T03:44:48;22.00;;;10.10;;
61477;SDS011;47345;52.334;10.392;2023-11-21T03:50:11;19.20;;;8.30;;
61477;SDS011;47345;52.334;10.392;2023-11-21T03:52:54;20.70;;;9.40;;
61477;SDS011;47345;52.334;10.392;2023-11-21T03:55:39;21.60;;;10.20;;
61477;SDS011;47345;52.334;10.392;2023-11-21T03:58:20;17.10;;;9.20;;
61477;SDS011;47345;52.334;10.392;2023-11-21T04:01:01;19.00;;;9.30;;
61477;SDS011;47345;52.334;10.392;2023-11-21T04:03:47;20.90;;;9.50;;
61477;SDS011;47345;52.334;10.392;2023-11-21T04:06:50;17.30;;;10.00;;
61477;SDS011;47345;52.334;10.392;2023-11-21T04:09:35;23.70;;;9.90;;
61477;SDS011;47345;52.334;10.392;2023-11-21T04:12:13;22.90;;;9.60;;
61477;SDS011;47345;52.334;10.392;2023-11-21T04:14:48;22.60;;;10.50;;
61477;SDS011;47345;52.334;10.392;2023-11-21T04:17:56;25.40;;;10.50;;
61477;SDS011;47345;52.334;10.392;2023-11-21T04:20:48;18.60;;;9.10;;
61477;SDS011;47345;52.334;10.392;2023-11-21T04:23:54;18.20;;;10.00;;
61477;SDS011;47345;52.334;10.392;2023-11-21T04:26:53;23.20;;;10.80;;
61477;SDS011;47345;52.334;10.392;2023-11-21T04:29:48;19.80;;;10.20;;
61477;SDS011;47345;52.334;10.392;2023-11-21T04:32:33;17.00;;;10.20;;
61477;SDS011;47345;52.334;10.392;2023-11-21T04:35:33;21.60;;;10.20;;
61477;SDS011;47345;52.334;10.392;2023-11-21T04:38:30;22.60;;;9.50;;
61477;SDS011;47345;52.334;10.392;2023-11-21T04:41:15;25.10;;;10.00;;
61477;SDS011;47345;52.334;10.392;2023-11-21T04:44:12;18.00;;;9.40;;
61477;SDS011;47345;52.334;10.392;2023-11-21T04:46:48;19.90;;;9.60;;
61477;SDS011;47345;52.334;10.392;2023-11-21T04:49:28;18.10;;;9.70;;
61477;SDS011;47345;52.334;10.392;2023-11-21T04:52:07;20.30;;;9.80;;
61477;SDS011;47345;52.334;10.392;2023-11-21T04:54:39;31.70;;;16.50;;
61477;SDS011;47345;52.334;10.392;2023-11-21T04:57:10;30.40;;;13.70;;
61477;SDS011;47345;52.334;10.392;2023-11-21T04:59:41;25.50;;;11.50;;
61477;SDS011;47345;52.334;10.392;2023-11-21T05:02:12;21.00;;;10.60;;
61477;SDS011;47345;52.334;10.392;2023-11-21T05:05:02;28.10;;;11.40;;
61477;SDS011;47345;52.334;10.392;2023-11-21T05:07:35;22.00;;;11.00;;
61477;SDS011;47345;52.334;10.392;2023-11-21T05:10:07;21.40;;;10.50;;
61477;SDS011;47345;52.334;10.392;2023-11-21T05:12:41;23.00;;;11.20;;
61477;SDS011;47345;52.334;10.392;2023-11-21T05:15:13;24.00;;;10.60;;
61477;SDS011;47345;52.334;10.392;2023-11-21T05:17:45;19.70;;;11.70;;
61477;SDS011;47345;52.334;10.392;2023-11-21T05:20:18;33.60;;;16.50;;
61477;SDS011;47345;52.334;10.392;2023-11-21T05:22:49;17.50;;;10.60;;
61477;SDS011;47345;52.334;10.392;2023-11-21T05:25:20;21.30;;;10.80;;
61477;SDS011;47345;52.334;10.392;2023-11-21T05:27:51;19.90;;;11.30;;
61477;SDS011;47345;52.334;10.392;2023-11-21T05:30:22;18.70;;;10.30;;
61477;SDS011;47345;52.334;10.392;2023-11-21T05:32:52;23.10;;;10.70;;
61477;SDS011;47345;52.334;10.392;2023-11-21T05:35:23;18.20;;;9.60;;
61477;SDS011;47345;52.334;10.392;2023-11-21T05:37:54;22.30;;;11.30;;
61477;SDS011;47345;52.334;10.392;2023-11-21T05:40:25;19.90;;;9.90;;
61477;SDS011;47345;52.334;10.392;2023-11-21T05:42:57;20.20;;;10.70;;
61477;SDS011;47345;52.334;10.392;2023-11-21T05:45:28;17.70;;;9.20;;
61477;SDS011;47345;52.334;10.392;2023-11-21T05:47:58;20.90;;;10.20;;
61477;SDS011;47345;52.334;10.392;2023-11-21T05:50:30;20.20;;;10.70;;
61477;SDS011;47345;52.334;10.392;2023-11-21T05:53:01;22.40;;;10.50;;
61477;SDS011;47345;52.334;10.392;2023-11-21T05:55:31;16.60;;;9.20;;
61477;SDS011;47345;52.334;10.392;2023-11-21T05:58:02;16.00;;;8.40;;
61477;SDS011;47345;52.334;10.392;2023-11-21T06:00:32;17.70;;;8.30;;
61477;SDS011;47345;52.334;10.392;2023-11-21T06:03:03;10.80;;;7.10;;
61477;SDS011;47345;52.334;10.392;2023-11-21T06:05:35;7.10;;;4.20;;
61477;SDS011;47345;52.334;10.392;2023-11-21T06:08:06;4.40;;;3.20;;
61477;SDS011;47345;52.334;10.392;2023-11-21T06:10:38;4.90;;;2.90;;
61477;SDS011;47345;52.334;10.392;2023-11-21T06:13:08;3.10;;;2.60;;
61477;SDS011;47345;52.334;10.392;2023-11-21T06:15:39;4.20;;;2.50;;
61477;SDS011;47345;52.334;10.392;2023-11-21T06:18:10;4.90;;;3.00;;
61477;SDS011;47345;52.334;10.392;2023-11-21T06:20:42;4.00;;;2.60;;
61477;SDS011;47345;52.334;10.392;2023-11-21T06:23:13;4.50;;;3.10;;
61477;SDS011;47345;52.334;10.392;2023-11-21T06:25:44;6.70;;;4.00;;
61477;SDS011;47345;52.334;10.392;2023-11-21T06:28:15;6.40;;;4.40;;
61477;SDS011;47345;52.334;10.392;2023-11-21T06:30:46;5.60;;;3.60;;
61477;SDS011;47345;52.334;10.392;2023-11-21T06:33:18;7.00;;;4.40;;
61477;SDS011;47345;52.334;10.392;2023-11-21T06:35:49;7.50;;;4.60;;
61477;SDS011;47345;52.334;10.392;2023-11-21T06:38:20;6.50;;;4.50;;
61477;SDS011;47345;52.334;10.392;2023-11-21T06:40:51;8.20;;;4.50;;
61477;SDS011;47345;52.334;10.392;2023-11-21T06:43:22;6.70;;;4.70;;
61477;SDS011;47345;52.334;10.392;2023-11-21T06:45:54;10.00;;;4.80;;
61477;SDS011;47345;52.334;10.392;2023-11-21T06:48:25;6.90;;;4.70;;
61477;SDS011;47345;52.334;10.392;2023-11-21T06:50:58;11.10;;;5.60;;
61477;SDS011;47345;52.334;10.392;2023-11-21T06:53:28;9.50;;;5.30;;
61477;SDS011;47345;52.334;10.392;2023-11-21T06:56:01;8.60;;;5.40;;
61477;SDS011;47345;52.334;10.392;2023-11-21T06:58:32;9.30;;;5.50;;
61477;SDS011;47345;52.334;10.392;2023-11-21T07:01:03;9.90;;;6.00;;
61477;SDS011;47345;52.334;10.392;2023-11-21T07:03:34;10.00;;;6.80;;
61477;SDS011;47345;52.334;10.392;2023-11-21T07:06:06;12.40;;;7.20;;
61477;SDS011;47345;52.334;10.392;2023-11-21T07:08:37;11.90;;;6.80;;
61477;SDS011;47345;52.334;10.392;2023-11-21T07:11:08;11.00;;;7.20;;
61477;SDS011;47345;52.334;10.392;2023-11-21T07:13:38;13.70;;;7.20;;
61477;SDS011;47345;52.334;10.392;2023-11-21T07:16:09;11.40;;;7.20;;
61477;SDS011;47345;52.334;10.392;2023-11-21T07:18:40;10.10;;;6.90;;
61477;SDS011;47345;52.334;10.392;2023-11-21T07:21:11;11.40;;;7.10;;
61477;SDS011;47345;52.334;10.392;2023-11-21T07:23:43;13.40;;;7.50;;
61477;SDS011;47345;52.334;10.392;2023-11-21T07:26:13;14.70;;;7.90;;
61477;SDS011;47345;52.334;10.392;2023-11-21T07:28:45;14.60;;;7.80;;
61477;SDS011;47345;52.334;10.392;2023-11-21T07:31:16;13.80;;;7.60;;
61477;SDS011;47345;52.334;10.392;2023-11-21T07:33:50;16.50;;;7.40;;
61477;SDS011;47345;52.334;10.392;2023-11-21T07:36:21;14.50;;;7.80;;
61477;SDS011;47345;52.334;10.392;2023-11-21T07:38:52;15.50;;;8.40;;
61477;SDS011;47345;52.334;10.392;2023-11-21T07:41:22;14.20;;;8.20;;
61477;SDS011;47345;52.334;10.392;2023-11-21T07:43:58;13.60;;;7.80;;
61477;SDS011;47345;52.334;10.392;2023-11-21T07:46:29;14.00;;;8.10;;
61477;SDS011;47345;52.334;10.392;2023-11-21T07:49:00;12.30;;;7.00;;
61477;SDS011;47345;52.334;10.392;2023-11-21T07:51:32;14.30;;;6.90;;
61477;SDS011;47345;52.334;10.392;2023-11-21T07:54:02;12.50;;;8.10;;
61477;SDS011;47345;52.334;10.392;2023-11-21T07:56:34;11.60;;;7.70;;
61477;SDS011;47345;52.334;10.392;2023-11-21T07:59:05;13.50;;;8.40;;
61477;SDS011;47345;52.334;10.392;2023-11-21T08:01:36;16.50;;;8.10;;
61477;SDS011;47345;52.334;10.392;2023-11-21T08:04:08;12.40;;;7.60;;
61477;SDS011;47345;52.334;10.392;2023-11-21T08:06:39;15.20;;;8.00;;
61477;SDS011;47345;52.334;10.392;2023-11-21T08:09:10;16.40;;;8.70;;
61477;SDS011;47345;52.334;10.392;2023-11-21T08:11:41;14.10;;;8.40;;
61477;SDS011;47345;52.334;10.392;2023-11-21T08:14:11;14.50;;;8.90;;
61477;SDS011;47345;52.334;10.392;2023-11-21T08:16:43;18.20;;;8.70;;
61477;SDS011;47345;52.334;10.392;2023-11-21T08:19:13;14.60;;;8.40;;
61477;SDS011;47345;52.334;10.392;2023-11-21T08:21:44;16.50;;;8.30;;
61477;SDS011;47345;52.334;10.392;2023-11-21T08:24:15;15.60;;;7.70;;
61477;SDS011;47345;52.334;10.392;2023-11-21T08:26:45;11.60;;;7.20;;
61477;SDS011;47345;52.334;10.392;2023-11-21T08:29:16;13.80;;;7.10;;
61477;SDS011;47345;52.334;10.392;2023-11-21T08:31:48;13.20;;;7.40;;
61477;SDS011;47345;52.334;10.392;2023-11-21T08:34:18;12.00;;;7.30;;
61477;SDS011;47345;52.334;10.392;2023-11-21T08:36:49;13.30;;;7.90;;
61477;SDS011;47345;52.334;10.392;2023-11-21T08:39:20;11.30;;;7.20;;
61477;SDS011;47345;52.334;10.392;2023-11-21T08:41:52;10.70;;;7.10;;
61477;SDS011;47345;52.334;10.392;2023-11-21T08:44:22;10.00;;;6.90;;
61477;SDS011;47345;52.334;10.392;2023-11-21T08:46:53;14.00;;;7.00;;
61477;SDS011;47345;52.334;10.392;2023-11-21T08:49:24;11.10;;;7.00;;
61477;SDS011;47345;52.334;10.392;2023-11-21T08:51:55;12.30;;;6.60;;
61477;SDS011;47345;52.334;10.392;2023-11-21T08:54:27;13.70;;;7.90;;
61477;SDS011;47345;52.334;10.392;2023-11-21T08:56:59;8.70;;;6.00;;
61477;SDS011;47345;52.334;10.392;2023-11-21T08:59:29;8.80;;;5.70;;
61477;SDS011;47345;52.334;10.392;2023-11-21T09:02:00;10.50;;;6.30;;
61477;SDS011;47345;52.334;10.392;2023-11-21T09:04:31;11.80;;;6.10;;
61477;SDS011;47345;52.334;10.392;2023-11-21T09:07:02;8.90;;;5.50;;
61477;SDS011;47345;52.334;10.392;2023-11-21T09:09:33;10.40;;;6.30;;
61477;SDS011;47345;52.334;10.392;2023-11-21T09:12:05;8.60;;;5.80;;
61477;SDS011;47345;52.334;10.392;2023-11-21T09:14:40;8.50;;;5.90;;
61477;SDS011;47345;52.334;10.392;2023-11-21T09:17:11;9.20;;;6.10;;
61477;SDS011;47345;52.334;10.392;2023-11-21T09:19:42;8.70;;;6.10;;
61477;SDS011;47345;52.334;10.392;2023-11-21T09:22:18;11.40;;;6.10;;
61477;SDS011;47345;52.334;10.392;2023-11-21T09:24:48;10.40;;;5.80;;
61477;SDS011;47345;52.334;10.392;2023-11-21T09:27:20;9.60;;;5.90;;
61477;SDS011;47345;52.334;10.392;2023-11-21T09:29:50;8.50;;;5.50;;
61477;SDS011;47345;52.334;10.392;2023-11-21T09:32:21;7.70;;;5.60;;
61477;SDS011;47345;52.334;10.392;2023-11-21T09:34:52;9.10;;;5.90;;
61477;SDS011;47345;52.334;10.392;2023-11-21T09:37:26;8.80;;;5.90;;
61477;SDS011;47345;52.334;10.392;2023-11-21T09:39:57;7.70;;;5.40;;
61477;SDS011;47345;52.334;10.392;2023-11-21T09:42:29;10.50;;;6.00;;
61477;SDS011;47345;52.334;10.392;2023-11-21T09:45:05;9.70;;;5.80;;
61477;SDS011;47345;52.334;10.392;2023-11-21T09:47:45;7.70;;;5.50;;
61477;SDS011;47345;52.334;10.392;2023-11-21T09:50:17;8.90;;;5.50;;
61477;SDS011;47345;52.334;10.392;2023-11-21T09:52:52;7.70;;;4.80;;
61477;SDS011;47345;52.334;10.392;2023-11-21T09:55:28;7.50;;;5.30;;
61477;SDS011;47345;52.334;10.392;2023-11-21T09:58:04;11.40;;;5.30;;
61477;SDS011;47345;52.334;10.392;2023-11-21T10:00:35;8.80;;;5.30;;
61477;SDS011;47345;52.334;10.392;2023-11-21T10:03:08;7.40;;;5.40;;
61477;SDS011;47345;52.334;10.392;2023-11-21T10:05:40;7.40;;;5.20;;
61477;SDS011;47345;52.334;10.392;2023-11-21T10:08:12;11.50;;;5.40;;
61477;SDS011;47345;52.334;10.392;2023-11-21T10:10:44;8.20;;;4.60;;
61477;SDS011;47345;52.334;10.392;2023-11-21T10:13:18;7.90;;;5.00;;
61477;SDS011;47345;52.334;10.392;2023-11-21T10:15:49;9.20;;;5.50;;
61477;SDS011;47345;52.334;10.392;2023-11-21T10:18:21;9.10;;;4.90;;
61477;SDS011;47345;52.334;10.392;2023-11-21T10:20:54;7.90;;;4.80;;
61477;SDS011;47345;52.334;10.392;2023-11-21T10:23:27;8.10;;;5.40;;
61477;SDS011;47345;52.334;10.392;2023-11-21T10:25:58;8.40;;;5.60;;
61477;SDS011;47345;52.334;10.392;2023-11-21T10:28:41;10.50;;;5.80;;
61477;SDS011;47345;52.334;10.392;2023-11-21T10:31:23;7.80;;;5.50;;
61477;SDS011;47345;52.334;10.392;2023-11-21T10:33:56;6.60;;;5.10;;
61477;SDS011;47345;52.334;10.392;2023-11-21T10:36:38;8.10;;;4.80;;
61477;SDS011;47345;52.334;10.392;2023-11-21T10:39:09;10.80;;;5.30;;
61477;SDS011;47345;52.334;10.392;2023-11-21T10:41:45;7.60;;;5.80;;
61477;SDS011;47345;52.334;10.392;2023-11-21T10:44:17;8.20;;;5.20;;
61477;SDS011;47345;52.334;10.392;2023-11-21T10:46:50;16.30;;;6.10;;
61477;SDS011;47345;52.334;10.392;2023-11-21T10:49:24;8.80;;;5.90;;
61477;SDS011;47345;52.334;10.392;2023-11-21T10:51:56;8.00;;;5.50;;
61477;SDS011;47345;52.334;10.392;2023-11-21T10:54:26;7.30;;;5.30;;
61477;SDS011;47345;52.334;10.392;2023-11-21T10:56:57;12.70;;;5.90;;
61477;SDS011;47345;52.334;10.392;2023-11-21T10:59:29;6.20;;;4.50;;
61477;SDS011;47345;52.334;10.392;2023-11-21T11:02:01;8.60;;;5.50;;
61477;SDS011;47345;52.334;10.392;2023-11-21T11:04:41;11.60;;;5.50;;
61477;SDS011;47345;52.334;10.392;2023-11-21T11:07:13;7.30;;;5.60;;
61477;SDS011;47345;52.334;10.392;2023-11-21T11:09:45;7.20;;;5.10;;
61477;SDS011;47345;52.334;10.392;2023-11-21T11:12:16;9.20;;;5.40;;
61477;SDS011;47345;52.334;10.392;2023-11-21T11:14:47;7.20;;;5.20;;
61477;SDS011;47345;52.334;10.392;2023-11-21T11:17:20;7.80;;;5.10;;
61477;SDS011;47345;52.334;10.392;2023-11-21T11:19:51;8.40;;;5.80;;
61477;SDS011;47345;52.334;10.392;2023-11-21T11:22:28;9.80;;;5.40;;
61477;SDS011;47345;52.334;10.392;2023-11-21T11:25:12;7.50;;;5.00;;
61477;SDS011;47345;52.334;10.392;2023-11-21T11:27:54;7.70;;;5.40;;
61477;SDS011;47345;52.334;10.392;2023-11-21T11:30:39;6.40;;;5.10;;
61477;SDS011;47345;52.334;10.392;2023-11-21T11:33:20;7.30;;;5.20;;
61477;SDS011;47345;52.334;10.392;2023-11-21T11:36:04;8.10;;;5.00;;
61477;SDS011;47345;52.334;10.392;2023-11-21T11:38:44;10.10;;;5.60;;
61477;SDS011;47345;52.334;10.392;2023-11-21T11:41:25;6.40;;;5.00;;
61477;SDS011;47345;52.334;10.392;2023-11-21T11:43:57;7.00;;;5.00;;
61477;SDS011;47345;52.334;10.392;2023-11-21T11:46:41;8.50;;;5.20;;
61477;SDS011;47345;52.334;10.392;2023-11-21T11:49:24;8.90;;;5.40;;
61477;SDS011;47345;52.334;10.392;2023-11-21T11:55:03;8.00;;;4.80;;
61477;SDS011;47345;52.334;10.392;2023-11-21T11:57:37;8.00;;;5.20;;
61477;SDS011;47345;52.334;10.392;2023-11-21T12:00:18;7.10;;;5.00;;
61477;SDS011;47345;52.334;10.392;2023-11-21T12:02:53;8.00;;;4.70;;
61477;SDS011;47345;52.334;10.392;2023-11-21T12:05:26;7.60;;;4.70;;
61477;SDS011;47345;52.334;10.392;2023-11-21T12:08:01;8.30;;;4.70;;
61477;SDS011;47345;52.334;10.392;2023-11-21T12:10:33;5.40;;;3.90;;
61477;SDS011;47345;52.334;10.392;2023-11-21T12:13:06;6.40;;;4.30;;
61477;SDS011;47345;52.334;10.392;2023-11-21T12:15:40;8.50;;;5.00;;
61477;SDS011;47345;52.334;10.392;2023-11-21T12:18:10;11.00;;;6.90;;
61477;SDS011;47345;52.334;10.392;2023-11-21T12:20:42;5.20;;;4.10;;
61477;SDS011;47345;52.334;10.392;2023-11-21T12:23:14;9.10;;;4.30;;
61477;SDS011;47345;52.334;10.392;2023-11-21T12:25:45;5.80;;;4.30;;
61477;SDS011;47345;52.334;10.392;2023-11-21T12:28:16;10.60;;;4.50;;
61477;SDS011;47345;52.334;10.392;2023-11-21T12:30:47;5.80;;;4.10;;
61477;SDS011;47345;52.334;10.392;2023-11-21T12:33:19;5.50;;;4.20;;
61477;SDS011;47345;52.334;10.392;2023-11-21T12:35:50;6.40;;;4.10;;
61477;SDS011;47345;52.334;10.392;2023-11-21T12:38:21;4.60;;;3.90;;
61477;SDS011;47345;52.334;10.392;2023-11-21T12:40:52;5.80;;;4.40;;
61477;SDS011;47345;52.334;10.392;2023-11-21T12:43:24;6.20;;;4.60;;
61477;SDS011;47345;52.334;10.392;2023-11-21T12:46:05;10.10;;;4.40;;
61477;SDS011;47345;52.334;10.392;2023-11-21T12:48:38;5.50;;;4.30;;
61477;SDS011;47345;52.334;10.392;2023-11-21T12:51:11;7.10;;;4.20;;
61477;SDS011;47345;52.334;10.392;2023-11-21T12:53:43;7.40;;;4.30;;
61477;SDS011;47345;52.334;10.392;2023-11-21T12:56:15;5.60;;;4.20;;
61477;SDS011;47345;52.334;10.392;2023-11-21T12:58:45;7.40;;;4.20;;
61477;SDS011;47345;52.334;10.392;2023-11-21T13:01:18;6.10;;;4.30;;
61477;SDS011;47345;52.334;10.392;2023-11-21T13:03:50;6.40;;;3.90;;
61477;SDS011;47345;52.334;10.392;2023-11-21T13:06:21;7.10;;;3.60;;
61477;SDS011;47345;52.334;10.392;2023-11-21T13:08:54;4.50;;;3.70;;
61477;SDS011;47345;52.334;10.392;2023-11-21T13:11:25;5.60;;;3.80;;
61477;SDS011;47345;52.334;10.392;2023-11-21T13:13:59;6.00;;;3.70;;
61477;SDS011;47345;52.334;10.392;2023-11-21T13:16:31;8.10;;;4.60;;
61477;SDS011;47345;52.334;10.392;2023-11-21T13:19:02;5.10;;;3.90;;
61477;SDS011;47345;52.334;10.392;2023-11-21T13:21:33;6.40;;;3.40;;
61477;SDS011;47345;52.334;10.392;2023-11-21T13:24:04;5.30;;;4.00;;
61477;SDS011;47345;52.334;10.392;2023-11-21T13:26:37;6.20;;;4.00;;
61477;SDS011;47345;52.334;10.392;2023-11-21T13:29:08;4.50;;;3.40;;
61477;SDS011;47345;52.334;10.392;2023-11-21T13:31:40;5.10;;;3.50;;
61477;SDS011;47345;52.334;10.392;2023-11-21T13:34:11;5.00;;;3.20;;
61477;SDS011;47345;52.334;10.392;2023-11-21T13:36:48;5.00;;;3.70;;
61477;SDS011;47345;52.334;10.392;2023-11-21T13:39:26;6.00;;;3.00;;
61477;SDS011;47345;52.334;10.392;2023-11-21T13:41:56;5.40;;;3.30;;
61477;SDS011;47345;52.334;10.392;2023-11-21T13:44:27;5.60;;;3.30;;
61477;SDS011;47345;52.334;10.392;2023-11-21T13:47:05;5.40;;;3.40;;
61477;SDS011;47345;52.334;10.392;2023-11-21T13:49:36;7.00;;;3.50;;
61477;SDS011;47345;52.334;10.392;2023-11-21T13:52:09;7.90;;;3.60;;
61477;SDS011;47345;52.334;10.392;2023-11-21T13:54:44;12.10;;;3.80;;
61477;SDS011;47345;52.334;10.392;2023-11-21T13:57:15;4.80;;;3.40;;
61477;SDS011;47345;52.334;10.392;2023-11-21T13:59:46;5.30;;;3.50;;
61477;SDS011;47345;52.334;10.392;2023-11-21T14:02:17;4.10;;;3.30;;
61477;SDS011;47345;52.334;10.392;2023-11-21T14:04:49;5.30;;;2.60;;
61477;SDS011;47345;52.334;10.392;2023-11-21T14:07:23;5.30;;;3.50;;
61477;SDS011;47345;52.334;10.392;2023-11-21T14:10:01;4.60;;;3.80;;
61477;SDS011;47345;52.334;10.392;2023-11-21T14:12:32;4.70;;;3.60;;
61477;SDS011;47345;52.334;10.392;2023-11-21T14:15:07;5.00;;;3.70;;
61477;SDS011;47345;52.334;10.392;2023-11-21T14:17:45;5.10;;;3.80;;
61477;SDS011;47345;52.334;10.392;2023-11-21T14:20:15;6.00;;;4.20;;
61477;SDS011;47345;52.334;10.392;2023-11-21T14:22:48;4.70;;;3.50;;
61477;SDS011;47345;52.334;10.392;2023-11-21T14:25:20;8.30;;;3.90;;
61477;SDS011;47345;52.334;10.392;2023-11-21T14:27:51;4.10;;;3.20;;
61477;SDS011;47345;52.334;10.392;2023-11-21T14:30:21;4.80;;;3.60;;
61477;SDS011;47345;52.334;10.392;2023-11-21T14:32:53;4.90;;;3.40;;
61477;SDS011;47345;52.334;10.392;2023-11-21T14:35:24;4.70;;;3.20;;
61477;SDS011;47345;52.334;10.392;2023-11-21T14:37:55;4.30;;;3.60;;
61477;SDS011;47345;52.334;10.392;2023-11-21T14:40:27;4.90;;;3.60;;
61477;SDS011;47345;52.334;10.392;2023-11-21T14:43:01;4.70;;;3.60;;
61477;SDS011;47345;52.334;10.392;2023-11-21T14:45:33;5.00;;;3.60;;
61477;SDS011;47345;52.334;10.392;2023-11-21T14:48:04;7.30;;;4.60;;
61477;SDS011;47345;52.334;10.392;2023-11-21T14:50:43;4.10;;;3.20;;
61477;SDS011;47345;52.334;10.392;2023-11-21T14:53:30;8.30;;;3.50;;
61477;SDS011;47345;52.334;10.392;2023-11-21T14:56:19;3.70;;;3.10;;
61477;SDS011;47345;52.334;10.392;2023-11-21T14:58:54;4.40;;;3.30;;
61477;SDS011;47345;52.334;10.392;2023-11-21T15:01:30;3.70;;;2.70;;
61477;SDS011;47345;52.334;10.392;2023-11-21T15:04:14;4.60;;;3.60;;
61477;SDS011;47345;52.334;10.392;2023-11-21T15:06:58;4.00;;;3.20;;
61477;SDS011;47345;52.334;10.392;2023-11-21T15:09:28;5.30;;;3.50;;
61477;SDS011;47345;52.334;10.392;2023-11-21T15:12:09;4.90;;;3.40;;
61477;SDS011;47345;52.334;10.392;2023-11-21T15:14:45;4.00;;;3.50;;
61477;SDS011;47345;52.334;10.392;2023-11-21T15:17:20;5.00;;;3.40;;
61477;SDS011;47345;52.334;10.392;2023-11-21T15:19:54;6.90;;;4.60;;
61477;SDS011;47345;52.334;10.392;2023-11-21T15:22:25;5.90;;;4.20;;
61477;SDS011;47345;52.334;10.392;2023-11-21T15:24:56;4.50;;;3.20;;
61477;SDS011;47345;52.334;10.392;2023-11-21T15:27:29;5.60;;;3.60;;
61477;SDS011;47345;52.334;10.392;2023-11-21T15:30:00;4.60;;;3.70;;
61477;SDS011;47345;52.334;10.392;2023-11-21T15:32:31;5.00;;;3.80;;
61477;SDS011;47345;52.334;10.392;2023-11-21T15:35:01;7.50;;;3.70;;